• Join FlightAware (Why Join?)
  • Login
  • US Flag 
04:55AM EDT


 

Airport Tracker/Info


-or-


 

Live Flight TrackerFlight Track Log ✈ BBA27 ✈ 21-Jun-2013 ✈ CYZD - CYZD

Flight Track Log - Related Links

Times and Time Zones

All times are in EDT time to prevent confusion due to time zone crossing. See the BBA27 flight status page for this flight to view local times or setup timezone preferences in your user account.

Time Position Orientation Groundspeed Altitude Reporting Facility
EDT Latitude Longitude Course Direction KTS MPH feet Rate Location/Type
08:48PM 43.8000 -79.1500 North 250 288 3,000  Level Toronto Center
08:49PM 43.7833 -79.0333 101° East 250 288 4,900 1,260 Climbing Toronto Center
08:50PM 43.7833 -78.9333 90° East 260 299 5,600 1,920 Climbing Toronto Center
08:51PM 43.8000 -78.8500 74° East 260 299 8,800 2,580 Climbing Toronto Center
08:52PM 43.8333 -78.7500 65° Northeast 270 311 10,800 1,080 Climbing Toronto Center
08:53PM 43.7425 -79.4656 North  Level Estimated
08:53PM 43.8667 -78.6333 68° East 320 368 11,000  Level Toronto Center
08:54PM 43.9000 -78.5000 71° East 350 403 11,000  Level Toronto Center
08:55PM 43.9167 -78.3833 79° East 340 391 11,000  Level Toronto Center
08:56PM 43.9500 -78.2500 71° East 340 391 11,000 -720 Level Toronto Center
08:57PM 43.9833 -78.1333 68° East 340 391 9,600 -1,500 Descending Toronto Center
08:58PM 44.0000 -78.0167 79° East 300 345 8,100 -1,500 Descending Toronto Center
08:59PM 44.0167 -77.9167 77° East 280 322 6,700 -1,380 Descending Toronto Center
09:00PM 44.0167 -77.8167 90° East 270 311 5,400 -300 Descending Toronto Center
09:03PM 43.9801 -78.0457 258° West  Level Estimated
09:08PM 44.2167 -77.1167 257° West 230 265 4,000  Level Montreal Center
09:09PM 44.2667 -77.0500 44° Northeast 230 265 4,000  Level Montreal Center
09:10PM 43.8404 -78.8944 257° West  Level Estimated
09:10PM 44.3167 -77.0500 360° North 220 253 4,000  Level Montreal Center
09:11PM 43.8200 -79.0154 257° West  Level Estimated
09:11PM 44.3500 -77.1167 305° West 200 230 4,000  Level Montreal Center
09:12PM 43.7994 -79.1362 257° West  Level Estimated
09:12PM 44.3167 -77.1833 235° Southwest 200 230 4,000  Level Montreal Center
09:13PM 43.7786 -79.2570 257° West  Level Estimated
09:13PM 44.2833 -77.2333 227° Southwest 200 230 4,000  Level Montreal Center
09:16PM 44.2430 -77.4079 252° West  Level Estimated
09:23PM 44.0466 -78.2377 252° West  Level Estimated
09:24PM 44.0180 -78.3558 251° West  Level Estimated
09:25PM 43.9894 -78.4738 251° West  Level Estimated
09:26PM 43.9606 -78.5917 251° West  Level Estimated
09:27PM 43.9317 -78.7094 251° West  Level Estimated
09:27PM 44.1922 -77.3390 254° West  Level Estimated
09:28PM 43.9026 -78.8271 251° West  Level Estimated
09:29PM 43.8735 -78.9446 251° West  Level Estimated
09:30PM 43.8442 -79.0620 251° West  Level Estimated
09:31PM 43.8148 -79.1793 251° West  Level Estimated
09:33PM 44.1000 -77.6167 260° West 330 380 6,000  Level Montreal Center
09:33PM 44.1333 -77.6333 340° North 190 219 8,300 3,420 Climbing Toronto Center
09:34PM 44.0201 -78.1787 254° West  Level Estimated
09:34PM 44.1667 -77.6833 313° West 210 242 11,600  Level Toronto Center
09:35PM 44.0131 -78.2337 260° West  Level FlightAware Approximate
09:35PM 44.2167 -77.7500 316° Northwest 240 276 12,000  Level Toronto Center
09:36PM 44.0060 -78.2886 260° West  Level FlightAware Approximate
09:36PM 44.2667 -77.8167 316° Northwest 240 276 12,000  Level Toronto Center
09:37PM 43.9990 -78.3434 260° West  Level FlightAware Approximate
09:37PM 44.3000 -77.8833 305° West 240 276 12,000  Level Toronto Center
09:38PM 43.9918 -78.3983 260° West  Level FlightAware Approximate
09:38PM 44.3500 -77.9500 316° Northwest 230 265 12,000  Level Toronto Center
09:39PM 44.3833 -78.0167 305° West 220 253 12,000  Level Toronto Center
09:40PM 44.4333 -78.0667 324° Northwest 210 242 12,000  Level Toronto Center
09:41PM 44.4667 -78.1333 305° West 200 230 12,000  Level Toronto Center
09:42PM 44.5000 -78.1833 313° West 210 242 12,000  Level Toronto Center
09:43PM 44.5500 -78.2500 316° Northwest 200 230 12,000  Level Toronto Center
09:44PM 44.5833 -78.3000 313° West 190 219 12,000  Level Toronto Center
09:45PM 44.6167 -78.3500 313° West 180 207 12,000  Level Toronto Center
09:46PM 44.6500 -78.4167 305° West 180 207 12,000  Level Toronto Center
09:47PM 44.7167 -78.4833 325° Northwest 230 265 12,000  Level Toronto Center
09:48PM 44.7667 -78.5500 317° Northwest 240 276 12,100  Climbing Toronto Center
09:49PM 44.8167 -78.6167 317° Northwest 290 334 12,000 -60 Descending Toronto Center
09:50PM 44.8833 -78.7167 313° West 310 357 12,000  Level Toronto Center
09:51PM 44.9500 -78.7833 325° Northwest 310 357 12,000  Level Toronto Center
09:52PM 45.0167 -78.8500 325° Northwest 310 357 12,100  Climbing Toronto Center
09:53PM 45.0667 -78.9500 305° West 310 357 12,100 1,320 Level Toronto Center
09:54PM 45.1333 -79.0167 325° Northwest 300 345 14,800 2,820 Climbing Toronto Center
09:55PM 45.1833 -79.0667 325° Northwest 260 299 17,800 2,400 Climbing Toronto Center
09:56PM 45.2667 -79.0833 352° North 270 311 19,600 1,800 Climbing Toronto Center
09:57PM 45.3500 -79.0667 North 280 322 21,500 1,920 Climbing Toronto Center
09:58PM 45.4167 -79.0167 28° Northeast 300 345 23,500 1,620 Climbing Toronto Center
09:59PM 45.4833 -78.9500 35° Northeast 280 322 24,800 600 Climbing Toronto Center
10:00PM 45.4833 -78.8167 90° East 340 391 24,800  Level Toronto Center
10:01PM 45.4000 -78.8000 172° South 340 391 24,800  Level Toronto Center
10:02PM 45.3500 -78.9167 239° Southwest 320 368 24,800  Level Toronto Center
10:03PM 45.3333 -79.0167 257° West 310 357 24,800  Level Toronto Center
10:04PM 45.3833 -79.1333 301° West 320 368 24,800  Level Toronto Center
10:05PM 45.4333 -79.2500 301° West 320 368 24,800  Level Toronto Center
10:06PM 45.4833 -79.3500 306° West 330 380 24,800  Level Toronto Center
10:07PM 45.5333 -79.4667 301° West 320 368 24,800  Level Toronto Center
10:08PM 45.6167 -79.4167 23° Northeast 350 403 24,800 -300 Level Toronto Center
10:09PM 45.6000 -79.2667 99° East 380 437 24,300 -540 Descending Toronto Center
10:10PM 45.5000 -79.2333 167° South 380 437 23,800 -180 Descending Toronto Center
10:11PM 45.4000 -79.2000 167° South 360 414 24,000 60 Climbing Toronto Center
10:12PM 45.3000 -79.1833 173° South 350 403 24,000  Level Toronto Center
10:13PM 45.2000 -79.1833 180° South 350 403 24,000 -660 Level Toronto Center
10:14PM 45.1000 -79.1667 173° South 370 426 22,700 -1,860 Descending Toronto Center
10:15PM 45.0000 -79.1333 167° South 370 426 20,300 -2,340 Descending Toronto Center
10:16PM 44.9000 -79.1333 180° South 370 426 18,100 -2,040 Descending Toronto Center
10:17PM 44.8000 -79.1333 180° South 360 414 16,200 -1,860 Descending Toronto Center
10:18PM 44.7167 -79.1833 203° Southwest 340 391 14,400 -1,620 Descending Toronto Center
10:19PM 44.6333 -79.2333 203° Southwest 320 368 13,100 -1,320 Descending Toronto Center
10:20PM 44.5500 -79.3000 210° Southwest 320 368 11,800 -1,320 Descending Toronto Center
10:21PM 44.4833 -79.3500 208° Southwest 320 368 10,500 -1,380 Descending Toronto Center
10:22PM 44.4000 -79.4167 210° Southwest 300 345 9,100 -1,380 Descending Toronto Center
10:23PM 44.3333 -79.4667 208° Southwest 270 311 7,800 -1,320 Descending Toronto Center
10:24PM 44.2833 -79.5167 216° Southwest 260 299 6,600 -1,320 Descending Toronto Center
10:25PM 44.2167 -79.5333 190° South 260 299 5,200 -1,200 Descending Toronto Center
10:26PM 44.1333 -79.5333 180° South 250 288 4,300 -1,020 Descending Toronto Center
10:27PM 44.0667 -79.5667 200° South 250 288 3,200 -660 Descending Toronto Center
10:28PM 44.0000 -79.5667 180° South 240 276 3,000 -120 Descending Toronto Center
10:29PM 43.9333 -79.5833 190° South 240 276 3,000 -180 Level Toronto Center
10:30PM 43.8833 -79.5667 166° South 230 265 2,700 -780 Descending Toronto Center
10:31PM 43.8333 -79.5333 154° Southeast 220 253 1,500 -600 Descending Toronto Center
10:32PM 43.7833 -79.5000 154° Southeast 160 184 1,500 -240 Level Toronto Center
10:33PM 43.7667 -79.4667 125° Southeast 120 138 1,100 -420 Descending Toronto Center
10:34PM 43.7333 -79.4500 160° South 110 127 700 -420 Descending Toronto Center